Time;durP1;ratioP1;P1;durP2;ratioP2;P2;SDS_P1;SDS_P2;PMS_P1;PMS_P2;Temp;Humidity;BMP_temperature;BMP_pressure;BME280_temperature;BME280_humidity;BME280_pressure;Samples;Min_cycle;Max_cycle;Signal;HPM_P1;HPM_P2
2021/07/24 00:01:14;;;;;;;7.85;1.63;;;19.20;99.90;;;;;;5004182;28;20101;-77
2021/07/24 00:03:41;;;;;;;9.70;1.52;;;19.10;99.90;;;;;;4994251;28;20026;-77
2021/07/24 00:06:07;;;;;;;10.88;1.70;;;19.10;99.90;;;;;;4994990;28;20027;-77
2021/07/24 00:08:33;;;;;;;10.10;1.90;;;19.10;99.90;;;;;;4994471;28;20019;-76
2021/07/24 00:11:04;;;;;;;13.55;2.20;;;19.10;99.90;;;;;;4993357;28;20072;-77
2021/07/24 00:13:30;;;;;;;8.23;1.77;;;19.10;99.90;;;;;;4994675;28;20030;-77
2021/07/24 00:15:56;;;;;;;8.50;1.60;;;19.10;99.90;;;;;;4994409;28;20472;-77
2021/07/24 00:18:21;;;;;;;14.13;2.28;;;19.10;99.90;;;;;;4993489;28;20034;-77
2021/07/24 00:20:47;;;;;;;11.57;2.28;;;19.10;99.90;;;;;;4994271;28;20073;-77
2021/07/24 00:23:13;;;;;;;9.88;1.42;;;19.10;99.90;;;;;;4993923;28;20026;-77
2021/07/24 00:25:42;;;;;;;12.70;1.42;;;19.10;99.90;;;;;;5009615;28;20073;-76
2021/07/24 00:28:08;;;;;;;5.93;2.20;;;19.10;99.90;;;;;;5009558;28;20275;-77
2021/07/24 00:30:41;;;;;;;8.30;1.65;;;19.10;99.90;;;;;;4994369;28;20146;-77
2021/07/24 00:33:06;;;;;;;;;;;19.10;99.90;;;;;;5010394;28;20022;-77
2021/07/24 00:35:33;;;;;;;9.75;1.60;;;19.00;99.90;;;;;;5012445;28;20411;-77
2021/07/24 00:37:59;;;;;;;7.22;1.50;;;19.00;99.90;;;;;;5014099;28;20034;-77
2021/07/24 00:40:26;;;;;;;11.90;1.60;;;19.00;99.90;;;;;;5012274;28;20030;-77
2021/07/24 00:42:53;;;;;;;7.93;1.67;;;18.90;99.90;;;;;;5013226;28;20078;-77
2021/07/24 00:45:20;;;;;;;13.45;2.35;;;18.90;99.90;;;;;;5012328;28;20022;-77
2021/07/24 00:47:50;;;;;;;16.13;1.70;;;18.90;99.90;;;;;;5012732;28;20049;-77
2021/07/24 00:50:17;;;;;;;11.80;2.00;;;18.90;99.90;;;;;;5013490;28;20371;-77
2021/07/24 00:52:43;;;;;;;13.02;1.88;;;18.90;99.90;;;;;;5013356;28;20030;-77
2021/07/24 00:55:11;;;;;;;11.52;1.90;;;18.90;99.90;;;;;;5013476;28;20044;-77
2021/07/24 00:57:41;;;;;;;9.15;2.00;;;18.90;99.90;;;;;;5013355;28;20033;-77
2021/07/24 01:00:10;;;;;;;8.63;1.50;;;18.90;99.90;;;;;;5012317;28;20452;-78
2021/07/24 01:02:40;;;;;;;8.70;1.52;;;18.80;99.90;;;;;;5011815;28;20500;-77
2021/07/24 01:05:07;;;;;;;13.48;1.88;;;18.80;99.90;;;;;;5012035;28;20026;-77
2021/07/24 01:07:41;;;;;;;11.65;2.17;;;18.80;99.90;;;;;;5013200;28;20045;-76
2021/07/24 01:10:08;;;;;;;12.32;1.77;;;18.80;99.90;;;;;;5011528;28;20073;-78
2021/07/24 01:12:35;;;;;;;9.65;1.98;;;18.70;99.90;;;;;;5013209;28;20045;-77
2021/07/24 01:15:05;;;;;;;15.07;2.05;;;18.70;99.90;;;;;;5011891;28;20034;-77
2021/07/24 01:17:31;;;;;;;14.90;2.30;;;18.60;99.90;;;;;;5012528;28;20022;-78
2021/07/24 01:19:56;;;;;;;15.48;1.95;;;18.60;99.90;;;;;;5012897;28;20033;-77
2021/07/24 01:22:25;;;;;;;9.13;1.70;;;18.60;99.90;;;;;;5012267;28;20044;-77
2021/07/24 01:24:51;;;;;;;7.80;1.98;;;18.60;99.90;;;;;;5011559;28;20026;-77
2021/07/24 01:27:16;;;;;;;9.25;2.28;;;18.70;99.90;;;;;;5012890;28;20508;-77
2021/07/24 01:29:42;;;;;;;4.88;1.83;;;18.60;99.90;;;;;;5013065;28;20032;-77
2021/07/24 01:32:08;;;;;;;10.68;1.95;;;18.70;99.90;;;;;;5012668;28;20120;-77
2021/07/24 01:34:33;;;;;;;8.70;1.80;;;18.70;99.90;;;;;;5010919;28;20394;-76
2021/07/24 01:36:59;;;;;;;12.75;1.98;;;18.60;99.90;;;;;;5012357;28;20036;-77
2021/07/24 01:39:25;;;;;;;10.23;1.85;;;18.60;99.90;;;;;;5012204;28;20554;-77
2021/07/24 01:41:51;;;;;;;8.70;1.73;;;18.60;99.90;;;;;;5013229;28;20030;-77
2021/07/24 01:44:16;;;;;;;10.18;2.10;;;18.60;99.90;;;;;;5012057;28;20081;-77
2021/07/24 01:46:43;;;;;;;8.88;2.05;;;18.60;99.90;;;;;;5012090;28;20049;-76
2021/07/24 01:54:48;;;;;;;8.50;2.25;;;18.60;99.90;;;;;;5012756;28;20538;-77
2021/07/24 01:57:15;;;;;;;;;;;18.70;99.90;;;;;;5012182;28;20026;-78
2021/07/24 01:59:45;;;;;;;15.20;2.25;;;18.70;99.90;;;;;;5012181;28;19913;-77
2021/07/24 02:02:15;;;;;;;13.45;2.28;;;18.70;99.90;;;;;;4993828;28;20026;-77
2021/07/24 02:04:48;;;;;;;15.80;2.97;;;18.70;99.90;;;;;;4992661;28;20026;-77
2021/07/24 02:07:16;;;;;;;10.90;2.63;;;18.80;99.90;;;;;;4992920;28;20425;-77
2021/07/24 02:09:43;;;;;;;11.25;2.60;;;18.80;99.90;;;;;;4991780;28;20027;-77
2021/07/24 02:12:10;;;;;;;15.18;2.70;;;18.80;99.90;;;;;;4992752;28;20038;-77
2021/07/24 02:14:35;;;;;;;11.55;2.85;;;18.70;99.90;;;;;;5006745;28;20117;-77
2021/07/24 02:17:01;;;;;;;14.15;3.10;;;18.80;99.90;;;;;;4991784;28;20106;-77
2021/07/24 02:19:31;;;;;;;12.57;3.20;;;18.80;99.90;;;;;;4992795;28;20034;-77
2021/07/24 02:21:57;;;;;;;11.45;2.97;;;18.80;99.90;;;;;;4992568;28;20547;-77
2021/07/24 02:24:22;;;;;;;15.57;3.03;;;18.80;99.90;;;;;;4992272;28;20034;-77
2021/07/24 02:26:48;;;;;;;13.82;3.03;;;18.90;99.90;;;;;;4992443;28;20505;-77
2021/07/24 02:29:14;;;;;;;13.02;2.78;;;18.90;99.90;;;;;;4991449;28;20026;-77
2021/07/24 02:31:39;;;;;;;11.55;3.15;;;18.90;99.90;;;;;;4992108;28;20030;-77
2021/07/24 02:34:05;;;;;;;14.23;3.30;;;18.80;99.90;;;;;;5000821;28;20076;-77
2021/07/24 02:36:31;;;;;;;17.80;2.95;;;18.80;99.90;;;;;;5010196;28;20537;-78
2021/07/24 02:38:57;;;;;;;18.75;3.67;;;18.90;99.90;;;;;;5012169;28;20072;-77
2021/07/24 02:41:22;;;;;;;19.52;3.90;;;18.90;99.90;;;;;;5011624;28;20116;-77
2021/07/24 02:43:48;;;;;;;15.18;3.28;;;18.90;99.90;;;;;;5011126;28;20058;-77
2021/07/24 02:46:19;;;;;;;21.17;3.85;;;18.90;99.90;;;;;;5011114;28;20025;-77
2021/07/24 02:48:48;;;;;;;18.13;3.67;;;18.90;99.90;;;;;;5011080;28;20143;-77
2021/07/24 02:51:15;;;;;;;17.73;3.67;;;19.00;99.90;;;;;;5011508;28;20101;-78
2021/07/24 02:53:41;;;;;;;13.15;3.38;;;18.90;99.90;;;;;;5011343;28;20037;-77
2021/07/24 02:56:07;;;;;;;17.58;3.95;;;19.00;99.90;;;;;;5011216;28;20181;-77
2021/07/24 02:58:32;;;;;;;15.80;3.90;;;19.10;99.90;;;;;;5011200;28;20144;-77
2021/07/24 03:00:58;;;;;;;22.88;4.18;;;19.10;99.90;;;;;;5002776;28;20037;-77
2021/07/24 03:03:24;;;;;;;15.48;4.43;;;19.20;99.90;;;;;;4991131;28;20030;-77
2021/07/24 03:05:49;;;;;;;18.80;4.03;;;19.20;99.90;;;;;;4991591;28;20034;-77
2021/07/24 03:08:16;;;;;;;22.15;3.83;;;19.10;99.90;;;;;;4990804;28;20482;-77
2021/07/24 03:10:42;;;;;;;19.90;3.95;;;19.10;99.90;;;;;;4991466;28;20030;-77
2021/07/24 03:13:08;;;;;;;13.10;3.42;;;19.10;99.90;;;;;;4991543;28;20445;-76
2021/07/24 03:15:33;;;;;;;16.80;3.67;;;19.10;99.90;;;;;;4991189;28;20066;-77
2021/07/24 03:17:59;;;;;;;14.73;3.10;;;19.10;99.90;;;;;;4990825;28;20489;-77
2021/07/24 03:20:25;;;;;;;19.95;3.63;;;19.10;99.90;;;;;;4990883;28;20033;-77
2021/07/24 03:22:50;;;;;;;14.15;3.10;;;19.20;99.90;;;;;;4990536;28;20175;-77
2021/07/24 03:25:16;;;;;;;10.43;2.47;;;19.20;99.90;;;;;;4992109;28;20033;-77
2021/07/24 03:27:42;;;;;;;11.75;3.00;;;19.20;99.90;;;;;;4991476;28;20026;-77
2021/07/24 03:30:08;;;;;;;19.08;3.35;;;19.20;99.90;;;;;;4990835;28;20394;-77
2021/07/24 03:32:34;;;;;;;11.77;2.58;;;19.20;99.90;;;;;;5006648;28;20374;-77
2021/07/24 03:34:59;;;;;;;13.75;3.08;;;19.10;99.90;;;;;;5007445;28;20026;-77
2021/07/24 03:37:25;;;;;;;18.30;2.58;;;19.10;99.90;;;;;;5009584;28;20037;-77
2021/07/24 03:39:50;;;;;;;10.98;2.72;;;19.00;99.90;;;;;;5009498;28;20354;-77
2021/07/24 03:42:16;;;;;;;13.57;2.47;;;19.00;99.90;;;;;;5010279;28;20022;-76
2021/07/24 03:44:42;;;;;;;15.80;2.70;;;19.00;99.90;;;;;;5010776;28;20065;-77
2021/07/24 03:47:08;;;;;;;16.77;2.88;;;19.00;99.90;;;;;;5009861;28;20034;-77
2021/07/24 03:49:33;;;;;;;13.32;2.42;;;19.00;99.90;;;;;;5010682;28;20026;-77
2021/07/24 03:51:59;;;;;;;17.02;2.63;;;19.10;99.90;;;;;;5010372;28;20026;-77
2021/07/24 03:54:27;;;;;;;14.52;2.83;;;19.00;99.90;;;;;;5010695;28;20073;-78
2021/07/24 03:56:52;;;;;;;14.45;2.63;;;19.00;99.90;;;;;;5010025;28;20029;-77
2021/07/24 03:59:18;;;;;;;14.48;2.80;;;19.00;99.90;;;;;;5010597;28;20070;-77
2021/07/24 04:01:44;;;;;;;12.02;2.70;;;19.00;99.90;;;;;;4995880;28;20056;-76
2021/07/24 04:04:11;;;;;;;10.52;2.40;;;19.00;99.90;;;;;;4990749;28;20022;-78
2021/07/24 04:06:37;;;;;;;11.82;2.65;;;19.00;99.90;;;;;;4990636;28;20026;-78
2021/07/24 04:09:05;;;;;;;16.10;2.58;;;19.00;99.90;;;;;;4990506;28;20030;-77
2021/07/24 04:11:31;;;;;;;17.35;3.33;;;19.00;99.90;;;;;;4989931;28;20026;-78
2021/07/24 04:13:57;;;;;;;14.48;3.00;;;19.00;99.90;;;;;;4990684;28;20371;-77
2021/07/24 04:16:23;;;;;;;15.35;4.38;;;19.00;99.90;;;;;;4990625;28;20026;-76
2021/07/24 04:18:49;;;;;;;11.52;2.63;;;19.00;99.90;;;;;;5005161;28;20038;-78
2021/07/24 04:21:18;;;;;;;25.88;3.40;;;19.00;99.90;;;;;;4993806;28;20559;-77
2021/07/24 04:23:44;;;;;;;16.00;3.03;;;19.00;99.90;;;;;;4994237;28;20053;-77
2021/07/24 04:26:10;;;;;;;24.63;3.10;;;19.00;99.90;;;;;;4993955;28;20047;-78
2021/07/24 04:28:35;;;;;;;16.20;3.08;;;19.00;99.90;;;;;;4994069;28;20094;-77
2021/07/24 04:31:01;;;;;;;14.23;2.85;;;19.00;99.90;;;;;;4994317;28;20101;-77
2021/07/24 04:33:26;;;;;;;13.55;3.60;;;19.00;99.90;;;;;;4997565;28;20033;-77
2021/07/24 04:35:52;;;;;;;18.63;3.35;;;19.00;99.90;;;;;;5013836;28;20041;-78
2021/07/24 04:38:18;;;;;;;19.77;3.10;;;19.00;99.90;;;;;;5012736;28;20049;-77
2021/07/24 04:40:45;;;;;;;15.43;3.13;;;19.00;99.90;;;;;;5013859;28;20026;-77
2021/07/24 04:43:13;;;;;;;15.55;2.65;;;19.10;99.90;;;;;;5012896;28;20092;-77
2021/07/24 04:45:43;;;;;;;17.77;2.80;;;19.10;99.90;;;;;;5011919;28;20041;-77
2021/07/24 04:48:10;;;;;;;18.58;3.17;;;19.10;99.90;;;;;;5012962;28;20026;-77
2021/07/24 04:50:40;;;;;;;15.05;2.80;;;19.10;99.90;;;;;;5012097;28;20029;-78
2021/07/24 04:53:05;;;;;;;11.75;2.70;;;19.00;99.90;;;;;;5013340;28;20160;-77
2021/07/24 04:55:31;;;;;;;9.35;2.70;;;19.00;99.90;;;;;;5013559;28;20100;-77
2021/07/24 04:57:58;;;;;;;10.40;2.80;;;19.10;99.90;;;;;;5013432;28;20034;-77
2021/07/24 05:00:23;;;;;;;9.40;2.88;;;19.10;99.90;;;;;;5007911;28;20027;-77
2021/07/24 05:02:49;;;;;;;13.40;3.05;;;19.10;99.90;;;;;;4993355;28;20045;-77
2021/07/24 05:05:15;;;;;;;20.67;2.90;;;19.10;99.90;;;;;;4993717;28;20049;-77
2021/07/24 05:07:41;;;;;;;14.32;2.92;;;19.10;99.90;;;;;;4993422;28;20549;-77
2021/07/24 05:10:08;;;;;;;10.07;2.75;;;19.00;99.90;;;;;;5008712;28;20507;-77
2021/07/24 05:12:35;;;;;;;13.80;3.60;;;19.00;99.90;;;;;;4993533;28;20050;-77
2021/07/24 05:15:01;;;;;;;18.10;3.83;;;19.00;99.90;;;;;;4993210;28;20027;-77
2021/07/24 05:17:27;;;;;;;16.65;2.97;;;19.00;99.90;;;;;;4993430;28;20026;-78
2021/07/24 05:19:52;;;;;;;19.80;3.47;;;19.00;99.90;;;;;;5009004;28;20049;-77
2021/07/24 05:22:18;;;;;;;17.67;3.20;;;19.10;99.90;;;;;;4992476;28;20113;-77
2021/07/24 05:24:44;;;;;;;17.80;3.38;;;19.10;99.90;;;;;;5008305;28;20030;-77
2021/07/24 05:27:11;;;;;;;13.23;3.20;;;19.10;99.90;;;;;;4992788;28;20027;-77
2021/07/24 05:29:37;;;;;;;10.38;2.90;;;19.10;99.90;;;;;;4992130;28;20019;-78
2021/07/24 05:32:03;;;;;;;18.65;3.40;;;19.20;99.90;;;;;;4992337;28;20041;-78
2021/07/24 05:34:28;;;;;;;14.95;3.08;;;19.20;99.90;;;;;;5004823;28;20034;-77
2021/07/24 05:36:54;;;;;;;21.75;3.30;;;19.30;99.90;;;;;;5011710;28;20428;-77
2021/07/24 05:39:20;;;;;;;16.40;3.35;;;19.30;99.90;;;;;;5026978;28;20038;-78
2021/07/24 05:41:45;;;;;;;13.88;3.58;;;19.40;99.90;;;;;;5012849;28;20022;-77
2021/07/24 05:44:13;;;;;;;12.93;3.20;;;19.50;99.90;;;;;;4998809;28;20046;-77
2021/07/24 05:46:40;;;;;;;18.08;3.50;;;19.70;99.90;;;;;;4993222;28;20050;-79
2021/07/24 05:49:06;;;;;;;10.30;3.05;;;19.80;99.90;;;;;;4992700;28;20030;-77
2021/07/24 05:51:32;;;;;;;17.27;3.17;;;19.90;99.90;;;;;;4992962;28;20547;-78
2021/07/24 05:53:58;;;;;;;9.00;2.70;;;20.00;99.90;;;;;;4993467;28;20035;-77
2021/07/24 05:56:23;;;;;;;15.32;3.20;;;20.00;99.90;;;;;;4992561;28;20039;-77
2021/07/24 05:58:49;;;;;;;23.38;2.85;;;19.90;99.90;;;;;;4993269;28;20035;-77
2021/07/24 06:01:14;;;;;;;18.30;3.47;;;19.80;99.90;;;;;;5003130;28;20029;-77
2021/07/24 06:03:40;;;;;;;20.63;4.25;;;19.70;99.90;;;;;;5011444;28;20034;-77
2021/07/24 06:06:06;;;;;;;18.80;3.72;;;19.30;99.90;;;;;;5012175;28;20021;-77
2021/07/24 06:08:32;;;;;;;17.40;3.67;;;19.00;99.90;;;;;;5011934;28;20022;-77
2021/07/24 06:11:02;;;;;;;14.88;3.53;;;18.80;99.90;;;;;;5011985;28;20022;-77
2021/07/24 06:13:28;;;;;;;18.83;3.40;;;18.70;99.90;;;;;;5011661;28;20040;-77
2021/07/24 06:15:54;;;;;;;11.55;3.13;;;18.60;99.90;;;;;;5011574;28;20040;-77
2021/07/24 06:18:23;;;;;;;19.48;3.35;;;18.60;99.90;;;;;;5011690;28;20104;-78
2021/07/24 06:20:49;;;;;;;13.45;3.65;;;18.60;99.90;;;;;;5011721;28;20045;-77
2021/07/24 06:23:15;;;;;;;11.82;3.35;;;18.70;99.90;;;;;;5011457;28;20030;-77
2021/07/24 06:25:45;;;;;;;15.90;3.78;;;18.80;99.90;;;;;;5011586;28;20033;-78
2021/07/24 06:28:12;;;;;;;18.35;3.78;;;18.90;99.90;;;;;;5011519;28;20029;-78
2021/07/24 06:30:38;;;;;;;25.10;4.15;;;18.90;99.90;;;;;;5010356;28;20435;-78
2021/07/24 06:33:05;;;;;;;19.38;4.00;;;19.00;99.90;;;;;;5011335;28;20476;-78
2021/07/24 06:35:31;;;;;;;23.15;3.55;;;19.10;99.90;;;;;;5010013;28;20018;-78
2021/07/24 06:37:57;;;;;;;18.63;4.07;;;19.20;99.90;;;;;;5008615;28;20607;-78
2021/07/24 06:40:23;;;;;;;19.52;3.33;;;19.20;99.90;;;;;;5011458;28;20488;-78
2021/07/24 06:42:49;;;;;;;17.40;3.53;;;19.30;99.90;;;;;;5010143;28;20508;-78
2021/07/24 06:45:14;;;;;;;11.07;2.97;;;19.40;99.90;;;;;;5010201;28;20056;-78
2021/07/24 06:47:40;;;;;;;12.75;3.00;;;19.50;99.90;;;;;;5011406;28;20034;-78
2021/07/24 06:50:07;;;;;;;9.18;2.70;;;19.60;99.90;;;;;;5009894;28;20026;-78
2021/07/24 06:52:32;;;;;;;11.00;2.50;;;19.60;99.90;;;;;;5011583;28;20040;-78
2021/07/24 06:54:58;;;;;;;8.95;2.63;;;19.70;99.90;;;;;;5011318;28;20404;-78
2021/07/24 06:57:24;;;;;;;7.55;1.98;;;19.70;99.90;;;;;;5011591;28;20028;-78
2021/07/24 06:59:49;;;;;;;4.97;1.73;;;19.70;99.90;;;;;;5011073;28;20575;-78
2021/07/24 07:02:15;;;;;;;5.10;1.60;;;19.70;99.90;;;;;;5010768;28;20619;-78
2021/07/24 07:04:41;;;;;;;6.43;2.05;;;19.70;99.90;;;;;;5010049;28;20029;-78
2021/07/24 07:07:07;;;;;;;13.63;2.17;;;19.80;99.90;;;;;;5010958;28;20113;-78
2021/07/24 07:09:33;;;;;;;8.13;1.77;;;19.80;99.90;;;;;;5009735;28;20026;-77
2021/07/24 07:11:59;;;;;;;9.32;2.17;;;19.80;99.90;;;;;;5009872;28;20108;-78
2021/07/24 07:14:25;;;;;;;10.07;1.90;;;19.90;99.90;;;;;;5010558;28;20479;-78
2021/07/24 07:16:51;;;;;;;8.43;2.10;;;19.90;99.90;;;;;;5010008;28;20056;-78
2021/07/24 07:19:18;;;;;;;10.50;3.05;;;19.80;99.90;;;;;;5026024;28;20567;-78
2021/07/24 07:21:44;;;;;;;13.50;2.60;;;19.80;99.90;;;;;;5010738;28;20029;-78
2021/07/24 07:24:09;;;;;;;13.02;2.42;;;19.70;99.90;;;;;;5009513;28;20448;-78
2021/07/24 07:26:35;;;;;;;11.35;2.65;;;19.80;99.90;;;;;;5011344;28;20034;-78
2021/07/24 07:29:04;;;;;;;8.77;2.45;;;19.80;99.90;;;;;;5010003;28;20516;-78
2021/07/24 07:31:34;;;;;;;10.75;2.58;;;20.00;99.90;;;;;;5011224;28;20045;-78
2021/07/24 07:34:01;;;;;;;6.88;2.00;;;20.10;99.90;;;;;;5008979;28;20033;-78
2021/07/24 07:36:27;;;;;;;10.48;2.30;;;20.20;99.90;;;;;;5010749;28;20025;-78
2021/07/24 07:38:53;;;;;;;8.93;2.17;;;20.30;99.90;;;;;;5009616;28;20037;-78
2021/07/24 07:41:19;;;;;;;7.55;2.25;;;20.60;99.90;;;;;;5010595;28;20072;-78
2021/07/24 07:43:46;;;;;;;8.10;2.40;;;20.70;99.90;;;;;;5008879;28;20058;-78
2021/07/24 07:46:11;;;;;;;10.52;2.50;;;20.70;99.90;;;;;;5010823;28;20030;-78
2021/07/24 07:48:37;;;;;;;6.10;2.28;;;20.70;99.90;;;;;;5010391;28;20444;-78
2021/07/24 07:51:04;;;;;;;10.65;2.20;;;20.70;99.90;;;;;;5009216;28;20504;-78
2021/07/24 07:53:30;;;;;;;9.77;2.53;;;21.00;99.90;;;;;;5010718;28;20038;-77
2021/07/24 07:55:56;;;;;;;7.22;2.00;;;20.90;99.90;;;;;;5014493;28;20036;-77
2021/07/24 07:58:23;;;;;;;11.48;2.40;;;21.40;99.90;;;;;;5029146;28;20034;-77
2021/07/24 08:00:50;;;;;;;6.03;1.80;;;22.50;99.90;;;;;;5014640;28;20064;-78
2021/07/24 08:03:15;;;;;;;7.53;2.10;;;24.10;99.90;;;;;;5014026;28;20057;-77
2021/07/24 08:05:41;;;;;;;7.28;2.17;;;25.30;99.70;;;;;;4994775;28;20057;-78
2021/07/24 08:08:07;;;;;;;6.55;2.17;;;26.40;97.50;;;;;;4994720;28;20044;-78
2021/07/24 08:10:34;;;;;;;12.23;2.03;;;25.50;97.20;;;;;;4994823;28;20018;-78
2021/07/24 08:13:16;;;;;;;8.27;2.33;;;23.50;99.90;;;;;;4994116;28;20056;-78
2021/07/24 08:15:42;;;;;;;7.95;1.85;;;22.60;99.90;;;;;;5009081;28;20028;-77
2021/07/24 08:18:08;;;;;;;9.50;2.47;;;21.90;99.90;;;;;;4994378;28;20497;-78
2021/07/24 08:20:34;;;;;;;8.35;2.38;;;22.90;99.90;;;;;;5009121;28;20089;-77
2021/07/24 08:23:00;;;;;;;9.20;2.70;;;22.20;99.90;;;;;;4994129;28;20532;-78
2021/07/24 08:25:26;;;;;;;10.52;2.67;;;21.70;99.90;;;;;;4994566;28;20041;-78
2021/07/24 08:27:53;;;;;;;12.40;2.92;;;21.40;99.90;;;;;;4994945;28;20443;-78
2021/07/24 08:30:19;;;;;;;10.65;2.42;;;21.20;99.90;;;;;;4992445;28;20120;-77
2021/07/24 08:32:45;;;;;;;6.28;2.28;;;23.30;99.90;;;;;;4994008;28;20489;-79
2021/07/24 08:35:11;;;;;;;6.32;2.28;;;22.90;99.90;;;;;;5012146;28;20038;-78
2021/07/24 08:37:37;;;;;;;5.20;2.10;;;23.30;99.60;;;;;;5014296;28;20582;-78
2021/07/24 08:40:03;;;;;;;5.28;2.30;;;24.70;96.50;;;;;;5012320;28;20108;-78
2021/07/24 08:42:30;;;;;;;7.13;2.13;;;27.00;93.80;;;;;;5013636;28;20057;-78
2021/07/24 08:44:57;;;;;;;6.40;2.20;;;27.60;91.30;;;;;;5013118;28;20081;-78
2021/07/24 08:47:23;;;;;;;7.78;2.40;;;28.20;90.70;;;;;;5013932;28;20054;-78
2021/07/24 08:49:49;;;;;;;6.38;2.40;;;28.40;90.20;;;;;;5012044;28;20049;-78
2021/07/24 08:52:18;;;;;;;4.63;2.08;;;27.90;90.40;;;;;;5013187;28;20018;-78
2021/07/24 08:54:43;;;;;;;5.68;2.10;;;28.30;90.50;;;;;;5013602;28;20104;-80
2021/07/24 08:57:13;;;;;;;7.53;2.55;;;28.10;90.40;;;;;;5012728;28;20450;-78
2021/07/24 08:59:40;;;;;;;5.90;2.28;;;28.10;90.80;;;;;;5013159;28;20033;-78
2021/07/24 09:02:08;;;;;;;5.47;2.28;;;28.30;90.70;;;;;;5007444;28;20485;-78
2021/07/24 09:04:36;;;;;;;6.13;2.40;;;28.50;90.70;;;;;;4993527;28;20041;-78
2021/07/24 09:07:05;;;;;;;5.45;2.40;;;27.70;91.30;;;;;;4992657;28;20038;-78
2021/07/24 09:09:31;;;;;;;7.78;2.60;;;27.00;92.40;;;;;;4993341;28;20022;-78
2021/07/24 09:11:57;;;;;;;5.07;2.45;;;27.20;92.50;;;;;;4993071;28;20026;-78
2021/07/24 09:14:23;;;;;;;12.23;2.65;;;27.70;92.50;;;;;;4992500;28;20026;-78
2021/07/24 09:16:50;;;;;;;9.07;2.75;;;27.70;92.10;;;;;;4992330;28;20108;-78
2021/07/24 09:19:17;;;;;;;8.45;2.65;;;27.50;92.60;;;;;;5008700;28;20118;-78
2021/07/24 09:21:43;;;;;;;5.20;2.05;;;27.00;92.70;;;;;;4992975;28;20065;-78
2021/07/24 09:24:20;;;;;;;9.98;3.38;;;26.50;93.20;;;;;;4992988;28;20069;-79
2021/07/24 09:26:46;;;;;;;9.90;2.45;;;26.20;94.50;;;;;;4993134;28;20482;-77
2021/07/24 09:29:14;;;;;;;13.10;2.90;;;24.70;95.90;;;;;;4993151;28;20015;-77
2021/07/24 09:31:41;;;;;;;10.05;2.67;;;25.20;96.40;;;;;;4993634;28;20019;-78
2021/07/24 09:34:11;;;;;;;9.88;2.85;;;24.10;98.00;;;;;;5001994;28;20034;-78
2021/07/24 09:36:37;;;;;;;12.85;2.75;;;23.10;99.90;;;;;;5012545;28;20113;-78
2021/07/24 09:39:11;;;;;;;14.77;3.13;;;23.50;99.90;;;;;;5026450;28;20026;-78
2021/07/24 09:41:40;;;;;;;9.88;3.10;;;25.60;97.00;;;;;;5013081;28;20087;-78
2021/07/24 09:44:06;;;;;;;15.68;2.78;;;25.20;97.70;;;;;;5012200;28;20076;-80
2021/07/24 09:46:32;;;;;;;9.35;2.58;;;24.50;98.50;;;;;;5012593;28;20477;-79
2021/07/24 09:49:10;;;;;;;8.65;2.53;;;25.10;96.50;;;;;;5012498;28;20517;-79
2021/07/24 09:51:37;;;;;;;5.82;2.15;;;26.40;94.20;;;;;;5012357;28;20103;-79
2021/07/24 09:54:04;;;;;;;6.13;1.98;;;27.00;92.90;;;;;;5012312;28;20030;-81
2021/07/24 09:56:43;;;;;;;5.90;2.20;;;27.80;91.50;;;;;;5012391;28;20477;-80
2021/07/24 09:59:22;;;;;;;5.80;2.00;;;27.50;90.70;;;;;;5012144;28;20034;-78
2021/07/24 10:01:55;;;;;;;7.43;1.95;;;27.90;89.80;;;;;;5007645;28;20034;-78
2021/07/24 10:04:39;;;;;;;7.55;2.20;;;27.80;90.70;;;;;;4992672;28;20081;-77
2021/07/24 10:07:07;;;;;;;8.68;2.50;;;28.10;91.10;;;;;;5007438;28;20026;-80
2021/07/24 10:09:35;;;;;;;24.75;2.65;;;28.20;90.50;;;;;;4990807;28;20574;-78
2021/07/24 10:12:06;;;;;;;7.10;2.60;;;28.00;90.90;;;;;;5007366;28;20037;-78
2021/07/24 10:14:31;;;;;;;6.20;1.95;;;28.20;91.20;;;;;;4991974;28;20022;-78
2021/07/24 10:16:59;;;;;;;8.82;2.00;;;27.90;90.40;;;;;;4991538;28;20038;-80
2021/07/24 10:19:26;;;;;;;5.10;1.80;;;27.20;90.40;;;;;;4990958;28;20123;-78
2021/07/24 10:21:53;;;;;;;5.70;1.98;;;27.10;91.10;;;;;;4992365;28;20109;-78
2021/07/24 10:24:19;;;;;;;5.10;1.90;;;27.10;91.20;;;;;;4991869;28;20033;-78
2021/07/24 10:27:00;;;;;;;6.00;2.00;;;27.10;91.40;;;;;;4992032;28;20038;-79
2021/07/24 10:29:41;;;;;;;7.60;2.20;;;26.90;91.70;;;;;;4991921;28;20323;-81
2021/07/24 10:32:15;;;;;;;8.25;2.17;;;26.90;91.60;;;;;;4991787;28;20125;-80
2021/07/24 10:34:51;;;;;;;4.20;2.00;;;27.10;91.80;;;;;;5005376;28;20033;-80
2021/07/24 10:37:46;;;;;;;6.10;2.00;;;27.10;91.70;;;;;;5011470;28;20026;-78
2021/07/24 10:40:22;;;;;;;8.75;2.40;;;27.00;92.00;;;;;;5005372;28;20560;-78
2021/07/24 10:42:49;;;;;;;7.68;2.28;;;27.10;92.00;;;;;;5011255;28;20500;-78
2021/07/24 10:45:33;;;;;;;7.30;2.40;;;27.10;92.20;;;;;;5011169;28;20080;-78
2021/07/24 10:48:13;;;;;;;9.48;2.15;;;27.20;91.80;;;;;;5010485;28;20038;-79
2021/07/24 10:51:02;;;;;;;4.13;2.00;;;27.80;91.00;;;;;;5011296;28;20033;-78
2021/07/24 10:53:48;;;;;;;5.57;2.10;;;27.30;91.10;;;;;;5008341;28;20046;-79
2021/07/24 10:56:35;;;;;;;6.47;2.03;;;27.50;91.00;;;;;;5010995;28;20034;-78
2021/07/24 10:59:27;;;;;;;10.32;2.38;;;26.90;92.20;;;;;;5011138;28;20049;-78
2021/07/24 11:01:58;;;;;;;7.45;2.65;;;27.10;91.90;;;;;;5004026;28;20500;-78
2021/07/24 11:04:38;;;;;;;9.52;2.30;;;27.10;91.70;;;;;;4991609;28;20117;-78
2021/07/24 11:07:13;;;;;;;6.75;2.17;;;27.00;91.70;;;;;;5006392;28;20027;-78
2021/07/24 11:09:46;;;;;;;7.15;2.13;;;27.50;91.60;;;;;;4991572;28;20026;-77
2021/07/24 11:12:16;;;;;;;9.13;2.80;;;26.80;92.50;;;;;;4991146;28;20408;-78
2021/07/24 11:14:49;;;;;;;9.15;2.15;;;26.50;93.10;;;;;;4991157;28;20114;-78
2021/07/24 11:17:18;;;;;;;4.68;1.77;;;26.40;93.00;;;;;;4991134;28;20101;-78
2021/07/24 11:19:50;;;;;;;7.32;2.30;;;26.90;92.10;;;;;;4991488;28;20512;-80
2021/07/24 11:22:25;;;;;;;8.95;1.95;;;27.10;91.20;;;;;;4991694;28;20031;-77
2021/07/24 11:24:51;;;;;;;5.13;1.75;;;27.20;91.40;;;;;;4990804;28;20113;-78
2021/07/24 11:27:26;;;;;;;10.98;2.13;;;27.30;91.60;;;;;;5006315;28;20113;-81
2021/07/24 11:29:55;;;;;;;6.25;1.83;;;27.20;91.40;;;;;;4993463;28;20019;-78
2021/07/24 11:32:25;;;;;;;6.07;1.83;;;26.80;92.00;;;;;;4995120;28;20096;-77
2021/07/24 11:34:57;;;;;;;4.68;1.98;;;26.60;92.10;;;;;;5010169;28;20396;-78
2021/07/24 11:37:45;;;;;;;4.93;1.52;;;26.80;92.30;;;;;;5014844;28;20061;-78
2021/07/24 11:40:19;;;;;;;3.65;1.50;;;27.20;91.50;;;;;;5028405;28;20046;-78
2021/07/24 11:42:58;;;;;;;4.80;1.98;;;27.10;91.80;;;;;;5014637;28;20045;-78
2021/07/24 11:45:23;;;;;;;8.90;1.70;;;26.00;93.00;;;;;;5014796;28;20458;-82
2021/07/24 11:48:05;;;;;;;5.20;1.63;;;26.50;92.80;;;;;;5013186;28;20112;-78
2021/07/24 11:50:30;;;;;;;3.97;1.73;;;26.30;92.60;;;;;;5013680;28;20076;-79
2021/07/24 11:52:56;;;;;;;4.88;1.60;;;26.60;92.40;;;;;;5014882;28;20029;-79
2021/07/24 11:55:29;;;;;;;5.95;1.70;;;26.60;92.70;;;;;;5013264;28;20061;-81
2021/07/24 11:58:09;;;;;;;6.38;1.70;;;26.30;92.80;;;;;;5014654;28;20026;-79
2021/07/24 12:00:39;;;;;;;9.52;2.25;;;25.80;93.60;;;;;;5014234;28;20022;-79
2021/07/24 12:03:22;;;;;;;5.88;1.90;;;26.10;93.50;;;;;;5000985;28;20030;-78
2021/07/24 12:05:49;;;;;;;8.40;2.15;;;26.10;94.30;;;;;;4995172;28;20022;-78
2021/07/24 12:08:36;;;;;;;5.72;2.13;;;26.30;94.20;;;;;;4994629;28;20576;-78
2021/07/24 12:11:02;;;;;;;9.88;1.90;;;25.70;94.00;;;;;;4993171;28;20053;-79
2021/07/24 12:13:29;;;;;;;8.75;1.90;;;25.50;93.80;;;;;;4994766;28;20417;-78
2021/07/24 12:16:08;;;;;;;7.35;1.77;;;25.60;93.60;;;;;;4992824;28;20026;-81
2021/07/24 12:18:43;;;;;;;5.63;1.60;;;25.90;93.10;;;;;;5009658;28;20033;-78
2021/07/24 12:21:13;;;;;;;5.32;1.70;;;25.80;93.40;;;;;;4993048;28;20608;-78
2021/07/24 12:23:43;;;;;;;10.38;2.10;;;25.90;93.50;;;;;;5009631;28;20041;-78
2021/07/24 12:26:11;;;;;;;5.57;1.98;;;26.00;93.50;;;;;;4994562;28;20039;-78
2021/07/24 12:28:38;;;;;;;5.55;1.48;;;26.00;93.80;;;;;;4994634;28;20395;-78
2021/07/24 12:31:23;;;;;;;10.13;2.00;;;26.10;92.90;;;;;;4992887;28;20057;-79
2021/07/24 12:33:59;;;;;;;8.48;1.80;;;26.00;93.20;;;;;;5009094;28;20498;-79
2021/07/24 12:36:26;;;;;;;9.75;1.92;;;25.50;93.20;;;;;;5009763;28;20041;-78
2021/07/24 12:38:53;;;;;;;7.03;1.48;;;25.20;93.80;;;;;;4994864;28;20593;-78
2021/07/24 12:41:35;;;;;;;7.28;2.20;;;25.00;94.00;;;;;;4993019;28;20030;-82
2021/07/24 12:44:02;;;;;;;8.23;2.03;;;25.20;94.20;;;;;;5005466;28;20116;-78
2021/07/24 12:46:28;;;;;;;8.18;1.80;;;25.30;94.90;;;;;;5012228;28;20026;-78
2021/07/24 12:48:56;;;;;;;8.30;1.60;;;25.20;94.30;;;;;;5012360;28;20041;-80
2021/07/24 12:51:39;;;;;;;8.50;2.10;;;25.20;94.60;;;;;;5012606;28;20030;-80
2021/07/24 12:54:11;;;;;;;9.93;1.80;;;25.40;93.90;;;;;;5012278;28;20038;-77